Time;durP1;ratioP1;P1;durP2;ratioP2;P2;SDS_P1;SDS_P2;PMS_P1;PMS_P2;Temp;Humidity;BMP_temperature;BMP_pressure;BME280_temperature;BME280_humidity;BME280_pressure;Samples;Min_cycle;Max_cycle;Signal;HPM_P1;HPM_P2
2023/06/21 00:00:34;;;;;;;;;;;;;;;23.66;47.64;92759.19;2062011;69;20061;-85
2023/06/21 00:03:01;;;;;;;;;;;;;;;23.62;47.84;92756.22;2061872;69;20060;-83
2023/06/21 00:05:26;;;;;;;;;;;;;;;23.71;47.98;92754.94;2061690;69;20063;-81
2023/06/21 00:07:54;;;;;;;;;;;;;;;23.71;47.60;92752.06;2058181;69;20058;-81
2023/06/21 00:10:27;;;;;;;;;;;;;;;23.21;49.33;92753.53;2061192;69;20064;-81
2023/06/21 00:12:53;;;;;;;;;;;;;;;23.15;48.99;92755.59;2061584;69;20078;-84
2023/06/21 00:15:19;;;;;;;;;;;;;;;23.30;48.97;92754.34;2061453;69;20049;-82
2023/06/21 00:17:44;;;;;;;;;;;;;;;23.26;48.60;92757.91;2061682;69;20073;-83
2023/06/21 00:20:10;;;;;;;;;;;;;;;23.28;48.44;92752.19;2058584;69;20072;-83
2023/06/21 00:22:36;;;;;;;;;;;;;;;23.23;48.99;92759.31;2061718;69;20061;-82
2023/06/21 00:25:02;;;;;;;;;;;;;;;23.25;49.47;92761.47;2061786;69;20078;-84
2023/06/21 00:27:27;;;;;;;;;;;;;;;23.15;48.84;92767.78;2061958;69;20101;-84
2023/06/21 00:29:53;;;;;;;;;;;;;;;23.08;49.83;92769.84;2058586;69;20061;-83
2023/06/21 00:32:20;;;;;;;;;;;;;;;23.18;49.59;92766.38;2058943;69;20108;-83
2023/06/21 00:34:47;;;;;;;;;;;;;;;23.04;49.57;92758.28;2068193;69;20049;-80
2023/06/21 00:37:16;;;;;;;;;;;;;;;23.00;49.74;92764.00;2063844;69;20168;-82
2023/06/21 00:39:43;;;;;;;;;;;;;;;23.07;50.64;92751.16;2062393;69;20059;-84
2023/06/21 00:42:10;;;;;;;;;;;;;;;23.08;49.76;92754.75;2062074;69;20058;-81
2023/06/21 00:44:37;;;;;;;;;;;;;;;22.67;50.88;92762.69;2055681;69;20042;-82
2023/06/21 00:47:04;;;;;;;;;;;;;;;22.54;50.96;92766.75;2061817;69;20058;-82
2023/06/21 00:49:30;;;;;;;;;;;;;;;22.68;51.62;92769.16;2061620;69;20065;-82
2023/06/21 00:51:58;;;;;;;;;;;;;;;22.72;51.79;92772.81;2061933;69;20515;-83
2023/06/21 00:54:26;;;;;;;;;;;;;;;22.68;51.42;92769.91;2061679;69;20053;-81
2023/06/21 00:56:53;;;;;;;;;;;;;;;22.74;51.34;92783.63;2063295;69;20464;-81
2023/06/21 00:59:19;;;;;;;;;;;;;;;22.51;51.21;92782.50;2059163;69;20062;-82
2023/06/21 01:01:45;;;;;;;;;;;;;;;22.53;52.30;92789.00;2055316;69;20121;-81
2023/06/21 01:04:12;;;;;;;;;;;;;;;22.56;51.13;92790.50;2058672;69;20089;-84
2023/06/21 01:06:45;;;;;;;;;;;;;;;22.46;52.50;92789.59;2058453;69;20081;-83
2023/06/21 01:09:25;;;;;;;;;;;;;;;22.47;52.30;92793.91;2057727;69;20061;-82
2023/06/21 01:11:59;;;;;;;;;;;;;;;22.37;52.24;92797.31;2056149;69;20105;-81
2023/06/21 01:14:30;;;;;;;;;;;;;;;22.41;52.33;92796.66;2058822;69;20161;-81
2023/06/21 01:16:56;;;;;;;;;;;;;;;22.41;52.53;92800.25;2055537;69;20473;-80
2023/06/21 01:19:43;;;;;;;;;;;;;;;22.55;51.46;92797.66;2054497;69;20106;-81
2023/06/21 01:22:21;;;;;;;;;;;;;;;22.56;51.15;92796.22;2054861;69;20054;-86
2023/06/21 01:25:10;;;;;;;;;;;;;;;22.42;52.72;92806.72;2058051;69;20042;-82
2023/06/21 01:27:53;;;;;;;;;;;;;;;22.27;52.77;92797.13;2054568;69;20046;-81
2023/06/21 01:30:22;;;;;;;;;;;;;;;22.30;52.46;92795.75;2058305;69;20112;-83
2023/06/21 01:32:53;;;;;;;;;;;;;;;22.08;53.31;92802.50;2054643;69;20193;-82
2023/06/21 01:35:21;;;;;;;;;;;;;;;22.07;52.23;92791.69;2054555;69;20117;-80
2023/06/21 01:37:48;;;;;;;;;;;;;;;21.94;51.76;92799.31;2054727;69;20480;-82
2023/06/21 01:40:15;;;;;;;;;;;;;;;21.96;52.62;92787.91;2058250;69;20452;-80
2023/06/21 01:42:41;;;;;;;;;;;;;;;21.97;53.20;92800.81;2058134;69;20062;-80
2023/06/21 01:45:07;;;;;;;;;;;;;;;22.00;52.88;92810.91;2054833;69;20437;-80
2023/06/21 01:47:33;;;;;;;;;;;;;;;21.90;53.41;92810.72;2055070;69;20244;-80
2023/06/21 01:49:58;;;;;;;;;;;;;;;;;;2058461;69;20137;-81
2023/06/21 01:52:26;;;;;;;;;;;;;;;21.92;53.18;92816.47;2054955;69;20066;-82
2023/06/21 01:54:51;;;;;;;;;;;;;;;21.82;53.21;92817.00;2057880;69;20081;-80
2023/06/21 01:57:18;;;;;;;;;;;;;;;21.78;53.32;92819.78;2058366;69;20062;-81
2023/06/21 01:59:44;;;;;;;;;;;;;;;21.76;53.19;92825.47;2055062;69;20057;-82
2023/06/21 02:02:10;;;;;;;;;;;;;;;21.75;52.67;92826.88;2054902;69;20106;-82
2023/06/21 02:04:39;;;;;;;;;;;;;;;21.56;53.21;92825.03;2058118;69;20062;-80
2023/06/21 02:07:07;;;;;;;;;;;;;;;21.63;53.74;92820.91;2058135;69;20568;-82
2023/06/21 02:09:33;;;;;;;;;;;;;;;21.65;53.18;92831.66;2058159;69;20061;-80
2023/06/21 02:12:00;;;;;;;;;;;;;;;21.69;53.42;92834.63;2056408;69;20046;-81
2023/06/21 02:14:26;;;;;;;;;;;;;;;21.52;54.53;92833.53;2061437;69;20428;-82
2023/06/21 02:16:51;;;;;;;;;;;;;;;21.47;54.72;92832.00;2057645;69;20089;-82
2023/06/21 02:19:17;;;;;;;;;;;;;;;21.52;54.85;92836.41;2058192;69;20054;-83
2023/06/21 02:21:44;;;;;;;;;;;;;;;21.51;54.13;92843.53;2058305;69;20548;-85
2023/06/21 02:24:13;;;;;;;;;;;;;;;21.47;54.80;92841.31;2051929;69;20042;-83
2023/06/21 02:26:38;;;;;;;;;;;;;;;21.51;54.02;92840.69;2058046;69;20489;-81
2023/06/21 02:29:03;;;;;;;;;;;;;;;21.47;53.78;92852.75;2057595;69;20167;-82
2023/06/21 02:31:31;;;;;;;;;;;;;;;21.43;54.53;92857.66;2056830;69;20137;-85
2023/06/21 02:33:56;;;;;;;;;;;;;;;21.38;53.82;92853.25;2059183;69;20692;-82
2023/06/21 02:36:22;;;;;;;;;;;;;;;21.40;53.88;92856.19;2058273;69;20086;-83
2023/06/21 02:38:47;;;;;;;;;;;;;;;21.35;54.17;92855.38;2054707;69;20070;-83
2023/06/21 02:41:13;;;;;;;;;;;;;;;21.45;53.33;92854.88;2058076;69;20053;-82
2023/06/21 02:43:38;;;;;;;;;;;;;;;21.26;52.64;92853.69;2054873;69;20201;-83
2023/06/21 02:46:03;;;;;;;;;;;;;;;21.67;50.08;92854.63;2054647;69;20096;-82
2023/06/21 02:48:30;;;;;;;;;;;;;;;21.64;50.53;92858.88;2058525;69;20076;-83
2023/06/21 02:50:55;;;;;;;;;;;;;;;21.59;51.90;92849.44;2054591;69;20494;-83
2023/06/21 02:53:21;;;;;;;;;;;;;;;21.64;51.03;92861.72;2055145;69;20053;-81
2023/06/21 02:55:46;;;;;;;;;;;;;;;21.57;50.29;92858.72;2054420;69;20065;-80
2023/06/21 02:58:12;;;;;;;;;;;;;;;21.67;49.84;92868.94;2058406;69;20072;-82
2023/06/21 03:00:40;;;;;;;;;;;;;;;21.52;50.20;92868.63;2058675;69;20073;-83
2023/06/21 03:03:06;;;;;;;;;;;;;;;21.43;51.06;92864.13;2058096;69;20167;-83
2023/06/21 03:05:35;;;;;;;;;;;;;;;21.40;51.83;92862.63;2056051;69;20097;-81
2023/06/21 03:08:03;;;;;;;;;;;;;;;21.45;51.23;92872.03;2058030;69;20156;-84
2023/06/21 03:10:29;;;;;;;;;;;;;;;21.44;52.03;92877.06;2058472;69;20050;-83
2023/06/21 03:12:55;;;;;;;;;;;;;;;21.35;52.17;92883.25;2058120;69;20050;-84
2023/06/21 03:15:22;;;;;;;;;;;;;;;21.42;51.89;92882.00;2054739;69;20204;-84
2023/06/21 03:17:48;;;;;;;;;;;;;;;21.29;51.33;92880.94;2054702;69;20082;-79
2023/06/21 03:20:14;;;;;;;;;;;;;;;21.28;51.46;92885.94;2058330;69;20123;-80
2023/06/21 03:22:42;;;;;;;;;;;;;;;21.44;51.73;92887.75;2054833;69;20066;-80
2023/06/21 03:25:11;;;;;;;;;;;;;;;21.38;51.47;92887.63;2058148;69;20061;-80
2023/06/21 03:27:38;;;;;;;;;;;;;;;21.25;51.17;92890.16;2058147;69;20058;-81
2023/06/21 03:30:05;;;;;;;;;;;;;;;21.24;51.61;92890.84;2055291;69;20485;-80
2023/06/21 03:32:32;;;;;;;;;;;;;;;21.11;51.67;92895.53;2055094;69;20113;-81
2023/06/21 03:34:58;;;;;;;;;;;;;;;21.30;51.60;92891.72;2055252;69;20094;-82
2023/06/21 03:37:27;;;;;;;;;;;;;;;20.75;53.09;92901.78;2055355;69;20121;-82
2023/06/21 03:39:53;;;;;;;;;;;;;;;20.97;52.51;92890.19;2058711;69;20139;-82
2023/06/21 03:42:19;;;;;;;;;;;;;;;20.97;52.85;92892.31;2055581;69;20054;-83
2023/06/21 03:44:45;;;;;;;;;;;;;;;20.97;52.69;92900.91;2052520;69;20082;-83
2023/06/21 03:47:11;;;;;;;;;;;;;;;20.85;52.87;92906.31;2055114;69;20093;-84
2023/06/21 03:49:39;;;;;;;;;;;;;;;20.99;51.88;92898.84;2055102;69;20050;-84
2023/06/21 03:52:05;;;;;;;;;;;;;;;20.99;53.25;92886.66;2055529;69;20057;-83
2023/06/21 03:54:31;;;;;;;;;;;;;;;20.97;53.49;92906.63;2058631;69;20120;-83
2023/06/21 03:56:57;;;;;;;;;;;;;;;21.25;51.75;92901.59;2058867;69;20493;-83
2023/06/21 03:59:22;;;;;;;;;;;;;;;21.34;51.29;92910.44;2058645;69;20074;-85
2023/06/21 04:01:48;;;;;;;;;;;;;;;21.40;50.59;92907.72;2055266;69;20441;-86
2023/06/21 04:04:15;;;;;;;;;;;;;;;21.19;49.98;92906.47;2061100;69;20054;-82
2023/06/21 04:06:40;;;;;;;;;;;;;;;21.46;50.44;92908.59;2060953;69;20160;-85
2023/06/21 04:09:06;;;;;;;;;;;;;;;21.44;51.11;92902.81;2059894;69;20120;-82
2023/06/21 04:11:31;;;;;;;;;;;;;;;21.20;51.00;92902.19;2058397;69;20049;-84
2023/06/21 04:13:57;;;;;;;;;;;;;;;21.21;52.00;92897.91;2056071;69;20056;-84
2023/06/21 04:16:23;;;;;;;;;;;;;;;21.19;51.79;92898.59;2056122;69;20492;-84
2023/06/21 04:18:49;;;;;;;;;;;;;;;21.34;50.97;92907.56;2059271;69;20109;-83
2023/06/21 04:21:16;;;;;;;;;;;;;;;21.35;52.38;92904.03;2058842;69;20097;-86
2023/06/21 04:23:41;;;;;;;;;;;;;;;21.45;51.08;92912.88;2055814;69;20091;-84
2023/06/21 04:26:07;;;;;;;;;;;;;;;21.41;52.22;92912.75;2059249;69;20119;-85
2023/06/21 04:28:33;;;;;;;;;;;;;;;21.51;51.53;92909.41;2056593;69;20061;-83
2023/06/21 04:31:00;;;;;;;;;;;;;;;21.41;51.25;92915.63;2057097;69;20097;-81
2023/06/21 04:33:26;;;;;;;;;;;;;;;21.48;51.93;92916.50;2060251;69;20054;-80
2023/06/21 04:35:52;;;;;;;;;;;;;;;21.51;49.53;92923.72;2060065;69;20073;-83
2023/06/21 04:38:19;;;;;;;;;;;;;;;21.47;49.58;92927.22;2056378;69;20597;-83
2023/06/21 04:40:45;;;;;;;;;;;;;;;21.48;50.90;92928.66;2059785;69;20461;-84
2023/06/21 04:43:10;;;;;;;;;;;;;;;21.43;50.78;92929.25;2059707;69;20072;-82
2023/06/21 04:45:36;;;;;;;;;;;;;;;21.47;51.53;92924.34;2058864;69;20093;-84
2023/06/21 04:48:03;;;;;;;;;;;;;;;21.30;52.54;92919.63;2056194;69;20105;-82
2023/06/21 04:50:29;;;;;;;;;;;;;;;21.48;52.77;92916.50;2059257;69;20507;-82
2023/06/21 04:52:58;;;;;;;;;;;;;;;21.57;51.11;92918.13;2061351;69;20060;-83
2023/06/21 04:55:24;;;;;;;;;;;;;;;21.66;51.27;92927.66;2059873;69;20050;-83
2023/06/21 04:57:51;;;;;;;;;;;;;;;21.59;51.50;92926.06;2058276;69;20452;-83
2023/06/21 05:00:18;;;;;;;;;;;;;;;21.69;50.01;92920.56;2058656;69;20486;-82
2023/06/21 05:02:43;;;;;;;;;;;;;;;21.62;50.17;92924.69;2061090;69;20145;-82
2023/06/21 05:05:09;;;;;;;;;;;;;;;21.54;51.51;92933.84;2061523;69;20495;-84
2023/06/21 05:07:37;;;;;;;;;;;;;;;21.55;52.29;92923.81;2061170;69;20061;-83
2023/06/21 05:10:04;;;;;;;;;;;;;;;21.63;52.66;92924.03;2059980;69;20143;-83
2023/06/21 05:12:29;;;;;;;;;;;;;;;21.78;52.27;92930.81;2059094;69;20057;-83
2023/06/21 05:14:56;;;;;;;;;;;;;;;21.68;52.17;92931.31;2059835;69;20053;-84
2023/06/21 05:17:21;;;;;;;;;;;;;;;21.65;53.33;92926.19;2059807;69;20227;-83
2023/06/21 05:19:47;;;;;;;;;;;;;;;21.68;52.73;92922.72;2058438;69;20153;-83
2023/06/21 05:22:12;;;;;;;;;;;;;;;21.77;52.11;92924.34;2060614;69;20097;-81
2023/06/21 05:24:38;;;;;;;;;;;;;;;21.74;51.11;92931.44;2059851;69;20072;-80
2023/06/21 05:27:04;;;;;;;;;;;;;;;21.69;52.25;92934.91;2061253;69;20429;-83
2023/06/21 05:29:29;;;;;;;;;;;;;;;21.83;51.74;92933.06;2061747;69;20132;-81
2023/06/21 05:31:55;;;;;;;;;;;;;;;21.74;50.85;92939.31;2058175;69;20157;-81
2023/06/21 05:34:20;;;;;;;;;;;;;;;21.69;49.69;92937.75;2057839;69;20046;-80
2023/06/21 05:36:46;;;;;;;;;;;;;;;21.75;49.62;92940.75;2058914;69;20504;-83
2023/06/21 05:39:11;;;;;;;;;;;;;;;21.81;49.34;92950.22;2059570;69;20560;-78
2023/06/21 05:41:37;;;;;;;;;;;;;;;21.93;48.88;92955.50;2057114;69;20589;-81
2023/06/21 05:44:04;;;;;;;;;;;;;;;21.98;49.14;92954.19;2062647;69;20077;-83
2023/06/21 05:46:29;;;;;;;;;;;;;;;22.07;49.99;92958.69;2057780;69;20548;-83
2023/06/21 05:48:54;;;;;;;;;;;;;;;22.12;51.26;92950.19;2059064;69;20478;-83
2023/06/21 05:51:20;;;;;;;;;;;;;;;22.17;50.69;92960.34;2061390;69;20061;-82
2023/06/21 05:53:46;;;;;;;;;;;;;;;22.26;50.02;92961.97;2060285;69;20398;-82
2023/06/21 05:56:12;;;;;;;;;;;;;;;22.36;49.94;92965.06;2058579;69;20599;-82
2023/06/21 05:58:38;;;;;;;;;;;;;;;22.31;49.25;92966.38;2057990;69;20212;-82
2023/06/21 06:01:04;;;;;;;;;;;;;;;22.30;51.51;92968.53;2059054;69;20041;-82
2023/06/21 06:03:30;;;;;;;;;;;;;;;21.86;50.00;92971.13;2060233;69;20054;-82
2023/06/21 06:05:55;;;;;;;;;;;;;;;22.15;50.54;92977.50;2058532;69;20058;-85
2023/06/21 06:08:21;;;;;;;;;;;;;;;22.28;51.94;92982.81;2060182;69;20411;-82
2023/06/21 06:10:47;;;;;;;;;;;;;;;22.47;50.89;92986.81;2060073;69;20626;-80
2023/06/21 06:13:12;;;;;;;;;;;;;;;22.46;52.13;92979.63;2058379;69;20068;-80
2023/06/21 06:15:38;;;;;;;;;;;;;;;22.58;52.12;92982.72;2058637;69;20046;-81
2023/06/21 06:18:03;;;;;;;;;;;;;;;22.49;52.60;92989.00;2058608;69;20480;-80
2023/06/21 06:20:29;;;;;;;;;;;;;;;22.61;52.54;92985.66;2060388;69;20081;-82
2023/06/21 06:22:54;;;;;;;;;;;;;;;22.62;50.99;92984.22;2061502;69;20492;-81
2023/06/21 06:25:19;;;;;;;;;;;;;;;22.74;51.83;92985.22;2061781;69;20054;-82
2023/06/21 06:27:45;;;;;;;;;;;;;;;22.86;51.70;92975.38;2054030;69;20053;-82
2023/06/21 06:30:11;;;;;;;;;;;;;;;22.81;52.72;92977.44;2060407;69;20156;-81
2023/06/21 06:32:36;;;;;;;;;;;;;;;22.87;52.30;92959.63;2057114;69;20049;-83
2023/06/21 06:35:02;;;;;;;;;;;;;;;23.14;50.28;92975.22;2058869;69;20058;-83
2023/06/21 06:37:28;;;;;;;;;;;;;;;23.07;51.59;92983.72;2061067;69;20061;-82
2023/06/21 06:39:54;;;;;;;;;;;;;;;23.22;51.53;92970.34;2057738;69;20053;-83
2023/06/21 06:42:20;;;;;;;;;;;;;;;23.30;51.80;92969.78;2054868;69;20049;-83
2023/06/21 06:44:46;;;;;;;;;;;;;;;23.41;51.18;92968.50;2057972;69;20081;-82
2023/06/21 06:47:12;;;;;;;;;;;;;;;23.50;51.85;92967.25;2058302;69;20070;-82
2023/06/21 06:49:37;;;;;;;;;;;;;;;23.54;51.63;92960.84;2059139;69;20115;-84
2023/06/21 06:52:03;;;;;;;;;;;;;;;23.70;50.90;92963.28;2057263;69;20465;-84
2023/06/21 06:54:28;;;;;;;;;;;;;;;23.80;50.84;92966.31;2055589;69;20073;-83
2023/06/21 06:56:54;;;;;;;;;;;;;;;23.86;51.33;92968.56;2058101;69;20054;-82
2023/06/21 06:59:21;;;;;;;;;;;;;;;23.56;50.58;92970.22;2057941;69;20512;-80
2023/06/21 07:01:47;;;;;;;;;;;;;;;23.87;49.86;92959.25;2058156;69;20054;-80
2023/06/21 07:04:12;;;;;;;;;;;;;;;24.03;49.59;92962.34;2058889;69;20085;-81
2023/06/21 07:06:37;;;;;;;;;;;;;;;24.12;51.06;92965.34;2059091;69;20046;-80
2023/06/21 07:09:04;;;;;;;;;;;;;;;24.26;50.24;92962.69;2058627;69;20054;-81
2023/06/21 07:11:30;;;;;;;;;;;;;;;24.34;51.38;92963.53;2059718;69;20074;-82
2023/06/21 07:13:55;;;;;;;;;;;;;;;24.41;49.33;92960.75;2060010;69;20413;-81
2023/06/21 07:16:27;;;;;;;;;;;;;;;24.50;51.02;92965.19;2061572;69;20142;-81
2023/06/21 07:18:52;;;;;;;;;;;;;;;24.59;50.73;92955.94;2060668;69;20109;-81
2023/06/21 07:21:19;;;;;;;;;;;;;;;24.71;51.18;92969.78;2058864;69;20146;-83
2023/06/21 07:23:45;;;;;;;;;;;;;;;24.80;50.17;92959.81;2059362;69;20480;-83
2023/06/21 07:26:10;;;;;;;;;;;;;;;24.98;49.31;92958.56;2061886;69;20517;-83
2023/06/21 07:28:36;;;;;;;;;;;;;;;25.05;49.87;92960.06;2060442;69;20049;-84
2023/06/21 07:31:03;;;;;;;;;;;;;;;25.12;49.31;92955.16;2058806;69;20117;-82
2023/06/21 07:33:28;;;;;;;;;;;;;;;25.18;48.88;92955.19;2059459;69;20119;-82
2023/06/21 07:35:54;;;;;;;;;;;;;;;25.34;47.82;92949.63;2059480;69;20062;-83
2023/06/21 07:38:19;;;;;;;;;;;;;;;25.51;48.14;92941.81;2059995;69;20115;-82
2023/06/21 07:40:45;;;;;;;;;;;;;;;25.58;48.51;92943.34;2060589;69;20098;-82
2023/06/21 07:43:10;;;;;;;;;;;;;;;25.62;48.51;92934.00;2059817;69;20497;-82
2023/06/21 07:45:35;;;;;;;;;;;;;;;25.70;47.94;92937.66;2057659;69;20056;-83
2023/06/21 07:48:01;;;;;;;;;;;;;;;25.79;47.33;92927.66;2061532;69;20049;-82
2023/06/21 07:50:27;;;;;;;;;;;;;;;25.93;48.45;92924.16;2059997;69;20145;-82
2023/06/21 07:52:53;;;;;;;;;;;;;;;26.09;48.48;92921.38;2061629;69;20116;-82
2023/06/21 07:55:20;;;;;;;;;;;;;;;26.06;44.43;92916.31;2060055;69;20509;-82
2023/06/21 07:57:46;;;;;;;;;;;;;;;26.05;44.71;92909.81;2063507;69;20050;-83
2023/06/21 08:00:13;;;;;;;;;;;;;;;26.33;43.67;92900.59;2059563;69;20501;-84
2023/06/21 08:02:39;;;;;;;;;;;;;;;26.36;44.18;92904.94;2061425;69;20058;-81
2023/06/21 08:05:05;;;;;;;;;;;;;;;26.69;44.59;92901.50;2062148;69;20049;-83
2023/06/21 08:07:30;;;;;;;;;;;;;;;26.68;42.57;92903.69;2063582;69;20115;-85
2023/06/21 08:09:56;;;;;;;;;;;;;;;26.91;41.75;92895.09;2062554;69;20093;-83
2023/06/21 08:12:22;;;;;;;;;;;;;;;27.20;42.31;92890.13;2060042;69;20411;-87
2023/06/21 08:14:47;;;;;;;;;;;;;;;27.35;41.95;92892.31;2057129;69;20057;-81
2023/06/21 08:17:13;;;;;;;;;;;;;;;27.43;40.54;92896.66;2058976;69;20125;-82
2023/06/21 08:19:38;;;;;;;;;;;;;;;27.51;40.96;92900.25;2058943;69;20070;-85
2023/06/21 08:22:03;;;;;;;;;;;;;;;27.38;41.66;92898.09;2060368;69;20050;-86
2023/06/21 08:24:29;;;;;;;;;;;;;;;28.06;41.85;92885.06;2060223;69;20065;-85
2023/06/21 08:26:54;;;;;;;;;;;;;;;28.23;41.70;92882.88;2058697;69;20054;-82
2023/06/21 08:29:20;;;;;;;;;;;;;;;28.40;40.02;92883.56;2058935;69;20441;-83
2023/06/21 08:31:45;;;;;;;;;;;;;;;28.92;40.50;92876.84;2061360;69;20084;-84
2023/06/21 08:34:11;;;;;;;;;;;;;;;29.14;40.37;92881.81;2061003;69;20046;-85
2023/06/21 08:36:38;;;;;;;;;;;;;;;29.22;37.79;92878.84;2060631;69;20046;-84
2023/06/21 08:39:04;;;;;;;;;;;;;;;29.42;38.82;92871.50;2060321;69;20474;-81
2023/06/21 08:41:30;;;;;;;;;;;;;;;29.77;36.87;92863.97;2058983;69;20050;-83
2023/06/21 08:43:56;;;;;;;;;;;;;;;29.53;36.60;92858.34;2058708;69;20478;-83
2023/06/21 08:46:24;;;;;;;;;;;;;;;30.27;36.72;92853.34;2055414;69;20130;-84
2023/06/21 08:48:51;;;;;;;;;;;;;;;30.49;36.15;92849.47;2060406;69;20147;-84
2023/06/21 08:51:16;;;;;;;;;;;;;;;30.96;34.68;92854.72;2061666;69;20064;-84
2023/06/21 08:54:05;;;;;;;;;;;;;;;31.26;34.52;92858.66;2058872;69;20469;-83
2023/06/21 08:56:33;;;;;;;;;;;;;;;30.54;34.69;92865.38;2059470;69;20440;-83
2023/06/21 08:59:03;;;;;;;;;;;;;;;30.80;33.91;92876.00;2062183;69;20099;-82
2023/06/21 09:01:32;;;;;;;;;;;;;;;31.58;34.60;92874.94;2059528;69;20121;-83
2023/06/21 09:03:58;;;;;;;;;;;;;;;31.97;33.73;92869.22;2055322;69;20048;-83
2023/06/21 09:06:25;;;;;;;;;;;;;;;32.08;33.39;92876.31;2060832;69;20207;-84
2023/06/21 09:08:53;;;;;;;;;;;;;;;32.25;31.68;92873.09;2059987;69;20473;-83
2023/06/21 09:11:21;;;;;;;;;;;;;;;32.81;31.23;92873.53;2061066;69;20046;-84
2023/06/21 09:13:47;;;;;;;;;;;;;;;32.79;30.88;92874.28;2056363;69;20050;-83
2023/06/21 09:16:13;;;;;;;;;;;;;;;33.34;31.08;92881.16;2059622;69;20053;-83
2023/06/21 09:18:39;;;;;;;;;;;;;;;33.50;30.65;92871.34;2058783;69;20547;-83
2023/06/21 09:21:06;;;;;;;;;;;;;;;34.07;30.60;92864.88;2058662;69;20053;-83
2023/06/21 09:23:31;;;;;;;;;;;;;;;33.36;29.51;92869.47;2058733;69;20049;-84
2023/06/21 09:25:57;;;;;;;;;;;;;;;33.99;30.35;92864.34;2059409;69;20049;-83
2023/06/21 09:28:22;;;;;;;;;;;;;;;34.71;29.42;92869.06;2061247;69;20080;-86
2023/06/21 09:30:48;;;;;;;;;;;;;;;34.66;29.68;92864.81;2060367;69;20076;-87
2023/06/21 09:33:13;;;;;;;;;;;;;;;34.19;28.13;92877.75;2061759;69;20127;-90
2023/06/21 09:35:39;;;;;;;;;;;;;;;34.57;28.38;92867.97;2061023;69;20146;-88
2023/06/21 09:38:24;;;;;;;;;;;;;;;35.00;28.44;92863.16;2061964;69;20058;-86
2023/06/21 09:40:49;;;;;;;;;;;;;;;35.18;28.63;92859.69;2061246;69;20054;-84
2023/06/21 09:43:15;;;;;;;;;;;;;;;34.39;28.45;92854.53;2064297;69;20124;-86
2023/06/21 09:45:40;;;;;;;;;;;;;;;35.31;27.54;92863.66;2059402;69;20432;-91
2023/06/21 09:48:06;;;;;;;;;;;;;;;35.73;28.82;92855.09;2058892;69;20089;-84
2023/06/21 09:50:44;;;;;;;;;;;;;;;36.32;29.04;92859.00;2055316;69;20052;-86
2023/06/21 09:53:10;;;;;;;;;;;;;;;36.64;27.72;92856.47;2058923;69;20057;-83
2023/06/21 09:55:35;;;;;;;;;;;;;;;35.69;26.56;92855.22;2061055;69;20137;-87
2023/06/21 09:58:02;;;;;;;;;;;;;;;35.25;26.59;92855.09;2060259;69;20470;-82
2023/06/21 10:00:33;;;;;;;;;;;;;;;35.94;26.87;92858.06;2058828;69;20068;-86
2023/06/21 10:02:59;;;;;;;;;;;;;;;36.84;26.27;92841.09;2058957;69;20054;-85
2023/06/21 10:05:24;;;;;;;;;;;;;;;37.02;25.46;92851.47;2058852;69;20058;-85
2023/06/21 10:07:50;;;;;;;;;;;;;;;37.70;25.67;92854.75;2058872;69;20049;-82
2023/06/21 10:10:18;;;;;;;;;;;;;;;37.90;25.27;92856.91;2060075;69;20058;-83
2023/06/21 10:12:50;;;;;;;;;;;;;;;38.55;25.59;92853.50;2061037;69;20181;-85
2023/06/21 10:15:18;;;;;;;;;;;;;;;38.35;24.18;92849.19;2058765;69;20050;-85
2023/06/21 10:17:44;;;;;;;;;;;;;;;37.96;24.31;92844.19;2060907;69;20104;-87
2023/06/21 10:20:11;;;;;;;;;;;;;;;38.75;24.03;92840.84;2060721;69;20133;-87
2023/06/21 10:22:39;;;;;;;;;;;;;;;38.13;23.56;92833.91;2055547;69;20100;-85
2023/06/21 10:25:05;;;;;;;;;;;;;;;39.05;23.15;92835.84;2057962;69;20077;-83
2023/06/21 10:27:31;;;;;;;;;;;;;;;39.25;23.79;92836.47;2060798;69;20108;-86
2023/06/21 10:29:57;;;;;;;;;;;;;;;40.07;23.21;92836.97;2060459;69;20119;-87
2023/06/21 10:32:27;;;;;;;;;;;;;;;39.92;23.28;92830.34;2061902;69;20588;-86
2023/06/21 10:35:03;;;;;;;;;;;;;;;40.74;22.88;92829.94;2062169;69;20073;-89
2023/06/21 10:37:38;;;;;;;;;;;;;;;40.98;21.69;92833.16;2059065;69;20050;-82
2023/06/21 10:40:05;;;;;;;;;;;;;;;41.48;20.41;92831.97;2058574;69;20085;-85
2023/06/21 10:42:31;;;;;;;;;;;;;;;42.63;19.58;92835.78;2060999;69;20081;-84
2023/06/21 10:44:58;;;;;;;;;;;;;;;42.85;18.23;92824.88;2058266;69;20085;-82
2023/06/21 10:47:25;;;;;;;;;;;;;;;45.30;17.21;92827.50;2059882;69;20172;-81
2023/06/21 10:49:51;;;;;;;;;;;;;;;46.11;16.56;92832.88;2063490;69;20049;-83
2023/06/21 10:52:17;;;;;;;;;;;;;;;46.27;16.04;92827.28;2060680;69;20149;-83
2023/06/21 10:54:45;;;;;;;;;;;;;;;46.22;16.24;92826.88;2058543;69;20133;-85
2023/06/21 10:57:11;;;;;;;;;;;;;;;45.89;16.48;92822.59;2059497;69;20046;-87
2023/06/21 10:59:37;;;;;;;;;;;;;;;45.82;15.96;92827.56;2060516;69;20088;-86
2023/06/21 11:02:02;;;;;;;;;;;;;;;44.74;16.58;92805.41;2060176;69;20045;-84
2023/06/21 11:04:27;;;;;;;;;;;;;;;47.98;15.25;92816.34;2061862;69;20057;-83
2023/06/21 11:06:57;;;;;;;;;;;;;;;46.35;15.59;92821.44;2059632;69;20089;-81
2023/06/21 11:09:23;;;;;;;;;;;;;;;47.28;15.04;92818.13;2058440;69;20502;-84
2023/06/21 11:11:50;;;;;;;;;;;;;;;46.23;14.86;92809.72;2057208;69;20050;-82
2023/06/21 11:14:19;;;;;;;;;;;;;;;48.92;13.93;92812.28;2058450;69;20050;-84
2023/06/21 11:16:45;;;;;;;;;;;;;;;51.41;12.55;92813.22;2060797;69;20057;-84
2023/06/21 11:19:13;;;;;;;;;;;;;;;51.70;12.86;92808.25;2063199;69;20050;-91
2023/06/21 11:21:45;;;;;;;;;;;;;;;49.55;13.54;92800.19;2059151;69;20150;-85
2023/06/21 11:24:11;;;;;;;;;;;;;;;49.29;13.52;92797.91;2061573;69;20433;-86
2023/06/21 11:27:09;;;;;;;;;;;;;;;48.42;13.73;92794.06;2057862;69;20088;-84
2023/06/21 11:29:36;;;;;;;;;;;;;;;49.95;12.76;92798.88;2047400;70;20081;-87
2023/06/21 11:32:11;;;;;;;;;;;;;;;49.00;13.69;92790.69;2047226;70;20083;-87
2023/06/21 11:34:37;;;;;;;;;;;;;;;48.05;15.06;92791.13;2047414;70;20103;-85
2023/06/21 11:37:21;;;;;;;;;;;;;;;48.97;14.32;92791.72;2050784;70;20086;-86
2023/06/21 11:39:56;;;;;;;;;;;;;;;49.39;13.87;92795.59;2051098;70;20065;-85
2023/06/21 11:42:25;;;;;;;;;;;;;;;47.37;14.88;92780.88;2051166;70;20143;-85
2023/06/21 11:44:53;;;;;;;;;;;;;;;46.18;15.22;92782.56;2051502;70;20058;-86
2023/06/21 11:47:19;;;;;;;;;;;;;;;44.67;17.02;92765.81;2049124;70;20075;-86
2023/06/21 11:49:57;;;;;;;;;;;;;;;46.50;15.89;92776.41;2050908;70;20134;-86
2023/06/21 11:52:24;;;;;;;;;;;;;;;47.40;15.40;92778.47;2048420;70;20558;-86
2023/06/21 11:54:50;;;;;;;;;;;;;;;48.22;14.51;92772.59;2050570;70;20055;-86
2023/06/21 11:57:16;;;;;;;;;;;;;;;48.31;14.09;92781.56;2050644;70;20054;-82
2023/06/21 11:59:43;;;;;;;;;;;;;;;48.02;14.26;92783.94;2045060;70;20504;-83
2023/06/21 12:02:13;;;;;;;;;;;;;;;47.29;13.79;92769.63;2048254;70;20153;-83
2023/06/21 12:04:40;;;;;;;;;;;;;;;43.94;16.44;92753.63;2052921;69;20129;-85
2023/06/21 12:07:05;;;;;;;;;;;;;;;42.36;18.26;92750.84;2062394;69;20042;-86
2023/06/21 12:09:31;;;;;;;;;;;;;;;41.66;17.96;92750.47;2058420;69;20050;-81
2023/06/21 12:11:57;;;;;;;;;;;;;;;41.31;19.56;92746.47;2059034;69;20057;-84
2023/06/21 12:14:23;;;;;;;;;;;;;;;41.33;18.12;92744.13;2057405;69;20049;-82
2023/06/21 12:16:50;;;;;;;;;;;;;;;42.54;17.84;92746.06;2063433;69;20211;-81
2023/06/21 12:19:16;;;;;;;;;;;;;;;41.67;19.67;92743.72;2062080;69;20157;-82
2023/06/21 12:21:42;;;;;;;;;;;;;;;41.93;19.80;92744.47;2059785;69;20474;-82
2023/06/21 12:24:09;;;;;;;;;;;;;;;40.39;20.86;92736.63;2058960;69;20125;-82
2023/06/21 12:26:46;;;;;;;;;;;;;;;40.24;21.47;92733.72;2058973;69;20146;-82
2023/06/21 12:29:11;;;;;;;;;;;;;;;40.24;20.91;92733.72;2058603;69;20057;-81
2023/06/21 12:31:37;;;;;;;;;;;;;;;40.95;21.23;92737.41;2058800;69;20159;-82
2023/06/21 12:34:02;;;;;;;;;;;;;;;39.45;21.33;92725.84;2061228;69;20533;-82
2023/06/21 12:36:29;;;;;;;;;;;;;;;38.85;21.99;92719.06;2058680;69;20585;-82
2023/06/21 12:38:56;;;;;;;;;;;;;;;39.83;20.77;92726.91;2064362;69;20021;-80
2023/06/21 12:41:22;;;;;;;;;;;;;;;39.06;21.85;92718.84;2061824;69;20139;-82
2023/06/21 12:43:49;;;;;;;;;;;;;;;40.13;22.05;92721.00;2059076;69;20054;-82
2023/06/21 12:46:14;;;;;;;;;;;;;;;40.22;22.04;92724.94;2058830;69;20116;-83